Saturday, December 16, 2017, 9:16 PM EST
Back to Local

KSWF, Newburgh / Stewart

Location: New Windsor, NY, United States Lat: 41.5
Local Time: 9:16 PM EST ( 2:16 GMT) Lon: -74.1
Time Zone: US/Eastern Elev: 492 ft

Show me the last for .
Show Decoded

2017-12-16 20:45 METAR KSWF 170145Z 29006KT 10SM OVC050 M01/M06 A3015 =
2017-12-16 19:45 METAR KSWF 170045Z 28008KT 10SM OVC050 M01/M04 A3012 =
2017-12-16 18:45 METAR KSWF 162345Z 27008KT 10SM OVC050 M01/M04 A3008 =
2017-12-16 17:45 METAR KSWF 162245Z 28007KT 10SM OVC045 M02/M04 A3005 =
2017-12-16 16:45 METAR KSWF 162145Z 27006KT 10SM OVC030 M01/M04 A3001 =
2017-12-16 15:45 METAR KSWF 162045Z 28008KT 20SM OVC033 M01/M04 A2998 =
2017-12-16 14:45 METAR KSWF 161945Z 26008KT 20SM BKN035 M01/M05 A2996 =
2017-12-16 13:45 METAR KSWF 161845Z 26010G18KT 20SM SCT070 00/M05 A2994 =
2017-12-16 12:45 METAR KSWF 161745Z 27010G18KT 15SM SCT050 BKN070 M01/M05 A2994 =
2017-12-16 11:45 METAR KSWF 161645Z 26014G20KT 15SM SCT040 BKN060 M01/M06 A2997 =
2017-12-16 10:45 METAR KSWF 161545Z 26012G22KT 20SM BKN060 M02/M06 A3000 =
2017-12-16 09:45 METAR KSWF 161445Z 25010G18KT 20SM SCT100 M03/M07 A3001 =
2017-12-16 08:45 METAR KSWF 161345Z 25008KT 10SM BKN100 M05/M08 A3000 =
2017-12-16 07:45 METAR KSWF 161245Z 27008KT 10SM FEW100 M08/M10 A2997 =
2017-12-16 06:45 METAR KSWF 161145Z 28010KT 10SM BKN100 M09/M10 A2994 =
2017-12-16 05:45 METAR KSWF 161045Z 28010KT 6SM BR FEW050 M09/M10 A2993 =
2017-12-16 04:45 METAR KSWF 160945Z 27009KT 10SM OVC050 M09/M10 A2992 =
2017-12-16 02:45 METAR KSWF 160745Z 28008KT 6SM BR SCT040 BKN050 M08/M09 A2990 =
2017-12-16 01:45 METAR KSWF 160645Z 28008KT 6SM BR FEW040 SCT050 M08/M09 A2987 =
2017-12-16 00:45 METAR KSWF 160545Z 28008KT 10SM BKN040 BKN050 M08/M09 A2987 =
2017-12-15 23:45 METAR KSWF 160445Z 28007KT 10SM SCT040 SCT050 M09/M09 A2987 =
2017-12-15 22:45 METAR KSWF 160345Z 29006KT 10SM BKN090 M08/M09 A2987 =
2017-12-15 21:45 METAR KSWF 160245Z 00000KT 10SM BKN070 M07/M08 A2987 =

Support USWX by starting your Amazon purchase here.